Time,TemperatureF,DewpointF,PressureIn,WindDirection,WindDirectionDegrees,WindSpeedMPH,WindSpeedGustMPH,Humidity,HourlyPrecipIn,Conditions,Clouds,dailyrainin,SoftwareType,DateUTC
2013-05-24 00:01:00,65.5,65.5,29.67,SE,128,0.0,0.0,100,0.00,,,0.78,Wunderground v.1.15,2013-05-24 04:01:00,
2013-05-24 00:02:00,65.5,65.5,29.67,SE,130,0.0,0.0,100,0.00,,,0.78,Wunderground v.1.15,2013-05-24 04:02:00,
2013-05-24 00:08:00,65.5,65.5,29.66,SE,130,0.0,0.0,100,0.00,,,0.79,Wunderground v.1.15,2013-05-24 04:08:00,
2013-05-24 00:11:00,65.5,65.5,29.66,SE,130,0.0,0.0,100,0.00,,,0.79,Wunderground v.1.15,2013-05-24 04:11:00,
2013-05-24 00:12:00,65.5,65.5,29.66,SE,130,0.0,0.0,100,0.00,,,0.79,Wunderground v.1.15,2013-05-24 04:12:00,
2013-05-24 00:18:00,65.5,65.5,29.66,SE,130,0.0,0.0,100,0.00,,,0.79,Wunderground v.1.15,2013-05-24 04:18:00,
2013-05-24 00:19:00,65.5,65.5,29.66,SE,130,0.0,0.0,100,0.00,,,0.79,Wunderground v.1.15,2013-05-24 04:19:00,
2013-05-24 00:25:00,65.5,65.5,29.65,SW,227,0.0,1.0,100,0.05,,,0.80,Wunderground v.1.15,2013-05-24 04:25:00,
2013-05-24 00:30:00,65.5,65.5,29.65,SW,226,0.0,0.0,100,0.05,,,0.80,Wunderground v.1.15,2013-05-24 04:30:00,
2013-05-24 00:36:00,65.5,65.5,29.65,SW,229,0.0,0.0,100,0.04,,,0.80,Wunderground v.1.15,2013-05-24 04:36:00,
2013-05-24 00:42:00,65.5,65.5,29.65,SW,229,0.0,0.0,100,0.00,,,0.80,Wunderground v.1.15,2013-05-24 04:42:00,
2013-05-24 00:48:00,65.5,65.5,29.65,SW,229,0.0,0.0,100,0.00,,,0.80,Wunderground v.1.15,2013-05-24 04:48:00,
2013-05-24 00:55:00,65.5,65.5,29.66,SW,227,0.0,0.0,100,0.24,,,0.81,Wunderground v.1.15,2013-05-24 04:55:00,
2013-05-24 01:01:00,65.5,65.5,29.66,SW,227,0.0,0.0,100,0.24,,,0.84,Wunderground v.1.15,2013-05-24 05:01:00,
2013-05-24 01:07:00,65.5,65.5,29.66,SW,224,0.0,1.0,100,0.08,,,0.84,Wunderground v.1.15,2013-05-24 05:07:00,
2013-05-24 01:12:00,65.3,65.3,29.66,SW,224,0.0,0.0,100,0.23,,,0.86,Wunderground v.1.15,2013-05-24 05:12:00,
2013-05-24 01:18:00,65.2,65.2,29.66,SW,224,0.0,0.0,100,0.14,,,0.87,Wunderground v.1.15,2013-05-24 05:18:00,
2013-05-24 01:25:00,64.8,64.8,29.65,SW,224,0.0,0.0,100,0.08,,,0.87,Wunderground v.1.15,2013-05-24 05:25:00,
2013-05-24 01:31:00,64.5,64.5,29.65,SW,224,0.0,0.0,100,0.14,,,0.89,Wunderground v.1.15,2013-05-24 05:31:00,
2013-05-24 01:37:00,64.5,64.5,29.64,SW,224,0.0,0.0,100,0.07,,,0.89,Wunderground v.1.15,2013-05-24 05:37:00,
2013-05-24 01:45:00,64.3,64.3,29.64,SW,224,0.0,0.0,100,0.04,,,0.89,Wunderground v.1.15,2013-05-24 05:45:00,
2013-05-24 01:51:00,64.2,64.2,29.64,SW,224,0.0,0.0,100,0.00,,,0.89,Wunderground v.1.15,2013-05-24 05:51:00,
2013-05-24 01:57:00,64.0,64.0,29.64,SW,224,0.0,0.0,100,0.00,,,0.90,Wunderground v.1.15,2013-05-24 05:57:00,
2013-05-24 02:02:00,63.7,63.7,29.64,SW,224,0.0,0.0,100,0.13,,,0.91,Wunderground v.1.15,2013-05-24 06:02:00,
2013-05-24 02:07:00,63.5,63.5,29.64,SW,224,0.0,0.0,100,0.15,,,0.92,Wunderground v.1.15,2013-05-24 06:07:00,
2013-05-24 02:12:00,63.4,63.4,29.64,SW,224,0.0,0.0,100,0.11,,,0.93,Wunderground v.1.15,2013-05-24 06:12:00,
2013-05-24 02:17:00,63.2,63.2,29.64,SW,224,0.0,0.0,100,0.07,,,0.93,Wunderground v.1.15,2013-05-24 06:17:00,
2013-05-24 02:22:00,63.2,63.2,29.63,SW,224,0.0,0.0,100,0.07,,,0.94,Wunderground v.1.15,2013-05-24 06:22:00,
2013-05-24 02:27:00,63.1,63.1,29.63,SW,224,0.0,0.0,100,0.06,,,0.94,Wunderground v.1.15,2013-05-24 06:27:00,
2013-05-24 02:32:00,63.1,63.1,29.63,SW,224,0.0,0.0,100,0.04,,,0.94,Wunderground v.1.15,2013-05-24 06:32:00,
2013-05-24 02:37:00,62.9,62.9,29.62,SW,224,0.0,0.0,100,0.00,,,0.95,Wunderground v.1.15,2013-05-24 06:37:00,
2013-05-24 02:42:00,62.9,62.9,29.62,SW,224,0.0,0.0,100,0.00,,,0.95,Wunderground v.1.15,2013-05-24 06:42:00,
2013-05-24 02:47:00,62.9,62.9,29.62,SW,224,0.0,0.0,100,0.00,,,0.95,Wunderground v.1.15,2013-05-24 06:47:00,
2013-05-24 02:52:00,62.7,62.7,29.62,SW,224,0.0,0.0,100,0.04,,,0.96,Wunderground v.1.15,2013-05-24 06:52:00,
2013-05-24 02:57:00,62.6,62.6,29.62,SW,224,0.0,0.0,100,0.04,,,0.96,Wunderground v.1.15,2013-05-24 06:57:00,
2013-05-24 03:02:00,62.6,62.6,29.62,SW,224,0.0,0.0,100,0.04,,,0.96,Wunderground v.1.15,2013-05-24 07:02:00,
2013-05-24 03:07:00,62.4,62.4,29.61,SW,224,0.0,0.0,100,0.04,,,0.97,Wunderground v.1.15,2013-05-24 07:07:00,
2013-05-24 03:12:00,62.4,62.4,29.61,SW,224,0.0,0.0,100,0.10,,,0.98,Wunderground v.1.15,2013-05-24 07:12:00,
2013-05-24 03:17:00,62.4,62.4,29.61,SW,224,0.0,0.0,100,0.08,,,0.98,Wunderground v.1.15,2013-05-24 07:17:00,
2013-05-24 03:22:00,62.4,62.4,29.60,SW,224,0.0,0.0,100,0.06,,,0.99,Wunderground v.1.15,2013-05-24 07:22:00,
2013-05-24 03:28:00,62.3,62.3,29.60,SW,224,0.0,0.0,100,0.06,,,0.99,Wunderground v.1.15,2013-05-24 07:28:00,
2013-05-24 03:33:00,62.3,62.3,29.60,SW,224,0.0,0.0,100,0.05,,,0.99,Wunderground v.1.15,2013-05-24 07:33:00,
2013-05-24 03:38:00,62.3,62.3,29.59,SW,224,0.0,0.0,100,0.00,,,0.99,Wunderground v.1.15,2013-05-24 07:38:00,
2013-05-24 03:43:00,62.3,62.3,29.59,SW,224,0.0,0.0,100,0.00,,,0.99,Wunderground v.1.15,2013-05-24 07:43:00,
2013-05-24 03:48:00,62.3,62.3,29.59,SW,224,0.0,0.0,100,0.00,,,0.99,Wunderground v.1.15,2013-05-24 07:48:00,
2013-05-24 03:55:00,62.1,62.1,29.59,SW,224,0.0,0.0,100,0.00,,,0.99,Wunderground v.1.15,2013-05-24 07:55:00,
2013-05-24 04:00:00,62.0,62.0,29.59,SW,224,0.0,0.0,100,0.00,,,0.99,Wunderground v.1.15,2013-05-24 08:00:00,
2013-05-24 04:05:00,62.0,62.0,29.60,SW,224,0.0,0.0,100,0.00,,,0.99,Wunderground v.1.15,2013-05-24 08:05:00,
2013-05-24 04:10:00,62.0,62.0,29.60,SW,224,0.0,0.0,100,0.00,,,0.99,Wunderground v.1.15,2013-05-24 08:10:00,
2013-05-24 04:16:00,62.0,62.0,29.60,SW,224,0.0,0.0,100,0.00,,,0.99,Wunderground v.1.15,2013-05-24 08:16:00,
2013-05-24 04:21:00,62.0,62.0,29.59,SW,224,0.0,0.0,100,0.00,,,0.99,Wunderground v.1.15,2013-05-24 08:21:00,
2013-05-24 04:26:00,61.8,61.8,29.59,SW,224,0.0,0.0,100,0.00,,,0.99,Wunderground v.1.15,2013-05-24 08:26:00,
2013-05-24 04:31:00,61.8,61.8,29.59,SW,224,0.0,0.0,100,0.00,,,0.99,Wunderground v.1.15,2013-05-24 08:31:00,
2013-05-24 04:36:00,61.6,61.6,29.61,SW,224,0.0,0.0,100,0.00,,,0.00,Wunderground v.1.15,2013-05-24 08:36:00,
2013-05-24 04:41:00,61.6,61.6,29.61,SW,224,0.0,0.0,100,0.00,,,0.00,Wunderground v.1.15,2013-05-24 08:41:00,
2013-05-24 04:46:00,61.6,61.6,29.61,SW,224,0.0,0.0,100,0.00,,,0.00,Wunderground v.1.15,2013-05-24 08:46:00,
2013-05-24 04:51:00,61.6,61.6,29.62,SW,224,0.0,0.0,100,0.00,,,0.00,Wunderground v.1.15,2013-05-24 08:51:00,
2013-05-24 04:56:00,61.6,61.6,29.62,SW,224,0.0,0.0,100,0.00,,,0.00,Wunderground v.1.15,2013-05-24 08:56:00,
2013-05-24 05:01:00,61.5,61.5,29.62,SW,224,0.0,0.0,100,0.00,,,0.00,Wunderground v.1.15,2013-05-24 09:01:00,
2013-05-24 05:06:00,61.5,61.5,29.62,SW,224,0.0,0.0,100,0.00,,,0.00,Wunderground v.1.15,2013-05-24 09:06:00,
2013-05-24 05:11:00,61.5,61.5,29.62,SW,224,0.0,0.0,100,0.00,,,0.00,Wunderground v.1.15,2013-05-24 09:11:00,
2013-05-24 05:16:00,61.3,61.3,29.62,SW,224,0.0,0.0,100,0.00,,,0.00,Wunderground v.1.15,2013-05-24 09:16:00,
2013-05-24 05:21:00,61.3,61.3,29.62,SW,224,0.0,0.0,100,0.00,,,0.00,Wunderground v.1.15,2013-05-24 09:21:00,
2013-05-24 05:26:00,61.3,61.3,29.62,SW,224,0.0,0.0,100,0.00,,,0.00,Wunderground v.1.15,2013-05-24 09:26:00,
2013-05-24 05:31:00,61.3,61.3,29.62,SW,224,0.0,0.0,100,0.00,,,0.00,Wunderground v.1.15,2013-05-24 09:31:00,
2013-05-24 05:36:00,61.3,61.3,29.62,SW,224,0.0,0.0,100,0.00,,,0.00,Wunderground v.1.15,2013-05-24 09:36:00,
2013-05-24 05:41:00,61.3,61.3,29.62,SW,224,0.0,0.0,100,0.00,,,0.00,Wunderground v.1.15,2013-05-24 09:41:00,
2013-05-24 05:47:00,61.3,61.3,29.62,SW,224,0.0,0.0,100,0.00,,,0.00,Wunderground v.1.15,2013-05-24 09:47:00,
2013-05-24 05:52:00,61.3,61.3,29.63,SW,224,0.0,0.0,100,0.00,,,0.00,Wunderground v.1.15,2013-05-24 09:52:00,
2013-05-24 05:57:00,61.2,61.2,29.63,SW,224,0.0,0.0,100,0.00,,,0.00,Wunderground v.1.15,2013-05-24 09:57:00,
2013-05-24 06:02:00,61.2,61.2,29.63,SW,224,0.0,0.0,100,0.00,,,0.00,Wunderground v.1.15,2013-05-24 10:02:00,
2013-05-24 06:07:00,61.3,61.3,29.63,SW,224,0.0,0.0,100,0.00,,,0.00,Wunderground v.1.15,2013-05-24 10:07:00,
2013-05-24 06:12:00,61.3,61.3,29.63,SW,224,0.0,0.0,100,0.00,,,0.00,Wunderground v.1.15,2013-05-24 10:12:00,
2013-05-24 06:17:00,61.3,61.3,29.63,SW,224,0.0,0.0,100,0.00,,,0.00,Wunderground v.1.15,2013-05-24 10:17:00,
2013-05-24 06:22:00,61.3,61.3,29.63,SW,224,0.0,0.0,100,0.00,,,0.00,Wunderground v.1.15,2013-05-24 10:22:00,
2013-05-24 06:27:00,61.3,61.3,29.63,SW,224,0.0,0.0,100,0.00,,,0.00,Wunderground v.1.15,2013-05-24 10:27:00,
2013-05-24 06:32:00,61.3,61.3,29.63,SW,224,0.0,0.0,100,0.00,,,0.00,Wunderground v.1.15,2013-05-24 10:32:00,
2013-05-24 06:37:00,61.3,61.3,29.64,SW,224,0.0,0.0,100,0.00,,,0.00,Wunderground v.1.15,2013-05-24 10:37:00,
2013-05-24 06:42:00,61.5,61.5,29.64,SW,224,0.0,0.0,100,0.00,,,0.00,Wunderground v.1.15,2013-05-24 10:42:00,
2013-05-24 06:47:00,61.5,61.5,29.64,SW,224,0.0,0.0,100,0.00,,,0.00,Wunderground v.1.15,2013-05-24 10:47:00,
2013-05-24 06:52:00,61.5,61.5,29.64,SW,224,0.0,0.0,100,0.00,,,0.00,Wunderground v.1.15,2013-05-24 10:52:00,
2013-05-24 06:57:00,61.5,61.5,29.64,SW,224,0.0,0.0,100,0.00,,,0.00,Wunderground v.1.15,2013-05-24 10:57:00,
2013-05-24 07:02:00,61.6,61.6,29.64,SW,224,0.0,0.0,100,0.00,,,0.00,Wunderground v.1.15,2013-05-24 11:02:00,
2013-05-24 07:07:00,61.6,61.6,29.64,SW,224,0.0,0.0,100,0.00,,,0.00,Wunderground v.1.15,2013-05-24 11:07:00,
2013-05-24 07:12:00,61.8,61.8,29.64,SW,224,0.0,0.0,100,0.00,,,0.00,Wunderground v.1.15,2013-05-24 11:12:00,
2013-05-24 07:17:00,61.8,61.8,29.64,SW,224,0.0,0.0,100,0.00,,,0.00,Wunderground v.1.15,2013-05-24 11:17:00,
2013-05-24 07:22:00,62.0,62.0,29.64,SW,224,0.0,0.0,100,0.00,,,0.00,Wunderground v.1.15,2013-05-24 11:22:00,
2013-05-24 07:27:00,62.0,62.0,29.64,SW,224,0.0,0.0,100,0.00,,,0.00,Wunderground v.1.15,2013-05-24 11:27:00,
2013-05-24 07:32:00,62.1,62.1,29.64,SW,224,0.0,0.0,100,0.00,,,0.00,Wunderground v.1.15,2013-05-24 11:32:00,
2013-05-24 07:37:00,62.1,62.1,29.64,SW,224,0.0,0.0,100,0.00,,,0.00,Wunderground v.1.15,2013-05-24 11:37:00,
2013-05-24 07:42:00,62.1,62.1,29.64,SW,224,0.0,0.0,100,0.00,,,0.00,Wunderground v.1.15,2013-05-24 11:42:00,
2013-05-24 07:47:00,62.3,62.3,29.64,SW,224,0.0,0.0,100,0.00,,,0.00,Wunderground v.1.15,2013-05-24 11:47:00,
2013-05-24 07:52:00,62.4,62.4,29.64,SW,224,0.0,0.0,100,0.00,,,0.00,Wunderground v.1.15,2013-05-24 11:52:00,
2013-05-24 07:57:00,62.4,62.4,29.64,SW,224,0.0,0.0,100,0.00,,,0.00,Wunderground v.1.15,2013-05-24 11:57:00,
2013-05-24 08:03:00,62.4,62.4,29.64,SW,224,0.0,0.0,100,0.00,,,0.00,Wunderground v.1.15,2013-05-24 12:03:00,
2013-05-24 08:08:00,62.4,62.4,29.65,SW,224,0.0,0.0,100,0.00,,,0.00,Wunderground v.1.15,2013-05-24 12:08:00,
2013-05-24 08:13:00,62.6,62.6,29.65,SW,224,0.0,0.0,100,0.00,,,0.00,Wunderground v.1.15,2013-05-24 12:13:00,
2013-05-24 08:18:00,62.6,62.6,29.65,SW,224,0.0,0.0,100,0.00,,,0.00,Wunderground v.1.15,2013-05-24 12:18:00,
2013-05-24 08:25:00,62.7,62.7,29.66,SW,224,0.0,0.0,100,0.00,,,0.00,Wunderground v.1.15,2013-05-24 12:25:00,
2013-05-24 08:30:00,62.7,62.7,29.66,SW,224,0.0,0.0,100,0.00,,,0.00,Wunderground v.1.15,2013-05-24 12:30:00,
2013-05-24 08:35:00,62.7,62.7,29.66,SW,224,0.0,0.0,100,0.00,,,0.00,Wunderground v.1.15,2013-05-24 12:35:00,
2013-05-24 08:40:00,62.7,62.7,29.66,SW,224,0.0,0.0,100,0.00,,,0.00,Wunderground v.1.15,2013-05-24 12:40:00,
2013-05-24 08:45:00,62.9,62.9,29.66,SW,224,0.0,0.0,100,0.00,,,0.00,Wunderground v.1.15,2013-05-24 12:45:00,
2013-05-24 08:50:00,62.9,62.9,29.67,SW,224,0.0,0.0,100,0.00,,,0.00,Wunderground v.1.15,2013-05-24 12:50:00,
2013-05-24 08:55:00,62.7,62.7,29.67,SW,224,0.0,0.0,100,0.00,,,0.00,Wunderground v.1.15,2013-05-24 12:55:00,
2013-05-24 09:00:00,62.7,62.7,29.67,SW,224,0.0,0.0,100,0.00,,,0.00,Wunderground v.1.15,2013-05-24 13:00:00,
2013-05-24 09:05:00,62.9,62.9,29.67,SW,224,0.0,0.0,100,0.00,,,0.00,Wunderground v.1.15,2013-05-24 13:05:00,
2013-05-24 09:10:00,62.9,62.9,29.67,SW,224,0.0,0.0,100,0.00,,,0.00,Wunderground v.1.15,2013-05-24 13:10:00,
2013-05-24 09:15:00,62.9,62.9,29.67,SW,224,0.0,0.0,100,0.00,,,0.00,Wunderground v.1.15,2013-05-24 13:15:00,
2013-05-24 09:20:00,63.1,63.1,29.67,SW,224,0.0,0.0,100,0.00,,,0.00,Wunderground v.1.15,2013-05-24 13:20:00,
2013-05-24 09:26:00,62.9,62.9,29.67,NNW,343,3.0,3.0,100,0.00,,,0.00,Wunderground v.1.15,2013-05-24 13:26:00,
2013-05-24 09:31:00,62.4,62.4,29.67,NNW,342,6.0,6.0,100,0.00,,,0.00,Wunderground v.1.15,2013-05-24 13:31:00,
2013-05-24 09:36:00,60.5,60.5,29.70,NE,52,1.0,6.0,100,0.00,,,0.00,Wunderground v.1.15,2013-05-24 13:36:00,
2013-05-24 09:41:00,59.3,59.0,29.70,NE,38,0.0,3.0,99,0.00,,,0.00,Wunderground v.1.15,2013-05-24 13:41:00,
2013-05-24 09:46:00,58.4,58.1,29.70,North,350,0.0,5.0,99,0.00,,,0.01,Wunderground v.1.15,2013-05-24 13:46:00,
2013-05-24 09:51:00,57.6,57.0,29.71,NNW,335,1.0,2.0,98,0.00,,,0.01,Wunderground v.1.15,2013-05-24 13:51:00,
2013-05-24 09:56:00,57.0,56.4,29.71,ENE,78,0.0,5.0,98,0.07,,,0.02,Wunderground v.1.15,2013-05-24 13:56:00,
2013-05-24 10:01:00,56.5,55.9,29.71,NNW,346,0.0,1.0,98,0.07,,,0.02,Wunderground v.1.15,2013-05-24 14:01:00,
2013-05-24 10:06:00,56.0,55.4,29.72,NNE,31,1.0,5.0,98,0.06,,,0.03,Wunderground v.1.15,2013-05-24 14:06:00,
2013-05-24 10:11:00,55.4,54.8,29.72,NNW,336,1.0,3.0,98,0.06,,,0.03,Wunderground v.1.15,2013-05-24 14:11:00,
2013-05-24 10:16:00,55.1,54.5,29.72,East,99,5.0,5.0,98,0.05,,,0.03,Wunderground v.1.15,2013-05-24 14:16:00,
2013-05-24 10:21:00,55.1,54.5,29.73,ENE,73,0.0,1.0,98,0.04,,,0.04,Wunderground v.1.15,2013-05-24 14:21:00,
2013-05-24 10:26:00,55.0,54.7,29.73,North,359,0.0,8.0,99,0.04,,,0.04,Wunderground v.1.15,2013-05-24 14:26:00,
2013-05-24 10:31:00,54.7,54.1,29.73,ESE,109,0.0,1.0,98,0.04,,,0.04,Wunderground v.1.15,2013-05-24 14:31:00,
2013-05-24 10:36:00,54.5,54.2,29.74,West,272,0.0,1.0,99,0.04,,,0.04,Wunderground v.1.15,2013-05-24 14:36:00,
2013-05-24 10:42:00,54.1,53.5,29.74,East,85,0.0,4.0,98,0.00,,,0.04,Wunderground v.1.15,2013-05-24 14:42:00,
2013-05-24 10:47:00,53.9,53.3,29.74,North,10,0.0,4.0,98,0.00,,,0.04,Wunderground v.1.15,2013-05-24 14:47:00,
2013-05-24 10:52:00,53.9,53.3,29.74,NNW,329,0.0,0.0,98,0.00,,,0.04,Wunderground v.1.15,2013-05-24 14:52:00,
2013-05-24 10:57:00,53.8,53.2,29.74,SSE,157,0.0,0.0,98,0.00,,,0.04,Wunderground v.1.15,2013-05-24 14:57:00,
2013-05-24 11:02:00,53.5,52.9,29.74,SE,127,0.0,2.0,98,0.00,,,0.04,Wunderground v.1.15,2013-05-24 15:02:00,
2013-05-24 11:07:00,53.5,52.9,29.75,SE,127,0.0,2.0,98,0.00,,,0.04,Wunderground v.1.15,2013-05-24 15:07:00,
2013-05-24 11:12:00,53.3,52.8,29.75,ESE,123,0.0,2.0,98,0.00,,,0.04,Wunderground v.1.15,2013-05-24 15:12:00,
2013-05-24 11:17:00,53.5,52.9,29.75,East,86,0.0,2.0,98,0.00,,,0.04,Wunderground v.1.15,2013-05-24 15:17:00,
2013-05-24 11:22:00,53.5,52.9,29.75,East,80,0.0,0.0,98,0.00,,,0.04,Wunderground v.1.15,2013-05-24 15:22:00,
2013-05-24 11:27:00,53.5,52.7,29.75,East,95,0.0,3.0,97,0.00,,,0.04,Wunderground v.1.15,2013-05-24 15:27:00,
2013-05-24 11:32:00,53.3,52.5,29.75,NNW,339,6.0,6.0,97,0.00,,,0.04,Wunderground v.1.15,2013-05-24 15:32:00,
2013-05-24 11:37:00,53.3,52.5,29.75,ESE,102,0.0,6.0,97,0.00,,,0.04,Wunderground v.1.15,2013-05-24 15:37:00,
2013-05-24 11:42:00,53.5,52.4,29.75,North,350,0.0,5.0,96,0.00,,,0.04,Wunderground v.1.15,2013-05-24 15:42:00,
2013-05-24 11:47:00,53.5,52.4,29.75,North,10,0.0,5.0,96,0.00,,,0.04,Wunderground v.1.15,2013-05-24 15:47:00,
2013-05-24 11:52:00,53.5,52.4,29.76,North,357,0.0,6.0,96,0.00,,,0.04,Wunderground v.1.15,2013-05-24 15:52:00,
2013-05-24 11:57:00,53.5,52.1,29.76,South,185,0.0,6.0,95,0.00,,,0.04,Wunderground v.1.15,2013-05-24 15:57:00,
2013-05-24 12:02:00,53.3,51.9,29.76,ENE,73,0.0,7.0,95,0.00,,,0.04,Wunderground v.1.15,2013-05-24 16:02:00,
2013-05-24 12:07:00,53.3,51.6,29.76,NNW,333,0.0,7.0,94,0.00,,,0.04,Wunderground v.1.15,2013-05-24 16:07:00,
2013-05-24 12:12:00,53.3,51.6,29.76,NW,313,0.0,0.0,94,0.00,,,0.04,Wunderground v.1.15,2013-05-24 16:12:00,
2013-05-24 12:17:00,53.5,51.8,29.76,SE,124,0.0,0.0,94,0.00,,,0.04,Wunderground v.1.15,2013-05-24 16:17:00,
2013-05-24 12:22:00,53.8,52.4,29.76,SE,127,0.0,0.0,95,0.00,,,0.04,Wunderground v.1.15,2013-05-24 16:22:00,
2013-05-24 12:28:00,54.1,52.7,29.76,SE,128,0.0,0.0,95,0.00,,,0.04,Wunderground v.1.15,2013-05-24 16:28:00,
2013-05-24 12:33:00,54.1,52.4,29.76,SE,141,0.0,5.0,94,0.00,,,0.04,Wunderground v.1.15,2013-05-24 16:33:00,
2013-05-24 12:38:00,54.1,52.1,29.77,NNW,328,0.0,5.0,93,0.00,,,0.04,Wunderground v.1.15,2013-05-24 16:38:00,
2013-05-24 12:43:00,53.9,50.7,29.77,North,356,0.0,5.0,89,0.00,,,0.04,Wunderground v.1.15,2013-05-24 16:43:00,
2013-05-24 12:48:00,53.8,50.6,29.77,SSE,152,0.0,5.0,89,0.00,,,0.04,Wunderground v.1.15,2013-05-24 16:48:00,
2013-05-24 12:53:00,53.6,50.1,29.77,NE,40,0.0,3.0,88,0.00,,,0.04,Wunderground v.1.15,2013-05-24 16:53:00,
2013-05-24 12:58:00,53.5,49.7,29.77,NNW,344,0.0,3.0,87,0.00,,,0.04,Wunderground v.1.15,2013-05-24 16:58:00,
2013-05-24 13:03:00,53.5,50.0,29.77,NNE,16,1.0,3.0,88,0.00,,,0.04,Wunderground v.1.15,2013-05-24 17:03:00,
2013-05-24 13:08:00,53.5,50.0,29.77,East,79,0.0,3.0,88,0.00,,,0.04,Wunderground v.1.15,2013-05-24 17:08:00,
2013-05-24 13:15:00,53.2,49.7,29.77,SE,145,0.0,2.0,88,0.00,,,0.04,Wunderground v.1.15,2013-05-24 17:15:00,
2013-05-24 13:20:00,53.1,49.6,29.78,NNE,28,0.0,0.0,88,0.00,,,0.04,Wunderground v.1.15,2013-05-24 17:20:00,
2013-05-24 13:25:00,52.8,49.0,29.78,NNE,31,0.0,2.0,87,0.00,,,0.04,Wunderground v.1.15,2013-05-24 17:25:00,
2013-05-24 13:30:00,52.6,49.1,29.78,NNW,329,0.0,0.0,88,0.00,,,0.04,Wunderground v.1.15,2013-05-24 17:30:00,
2013-05-24 13:36:00,52.5,49.0,29.78,NW,319,0.0,0.0,88,0.00,,,0.04,Wunderground v.1.15,2013-05-24 17:36:00,
2013-05-24 13:41:00,52.3,48.9,29.78,NNW,340,0.0,0.0,88,0.00,,,0.04,Wunderground v.1.15,2013-05-24 17:41:00,
2013-05-24 13:46:00,52.3,49.2,29.78,NNW,342,0.0,0.0,89,0.00,,,0.04,Wunderground v.1.15,2013-05-24 17:46:00,
2013-05-24 13:51:00,52.2,49.1,29.80,NNW,342,0.0,0.0,89,0.00,,,0.04,Wunderground v.1.15,2013-05-24 17:51:00,
2013-05-24 13:56:00,52.0,48.9,29.80,NNW,342,0.0,0.0,89,0.00,,,0.04,Wunderground v.1.15,2013-05-24 17:56:00,
2013-05-24 14:01:00,52.0,49.2,29.80,North,0,0.0,0.0,90,0.00,,,0.04,Wunderground v.1.15,2013-05-24 18:01:00,
2013-05-24 14:06:00,51.9,49.1,29.80,East,99,0.0,2.0,90,0.00,,,0.04,Wunderground v.1.15,2013-05-24 18:06:00,
2013-05-24 14:11:00,51.9,49.4,29.80,East,96,0.0,0.0,91,0.00,,,0.04,Wunderground v.1.15,2013-05-24 18:11:00,
2013-05-24 14:16:00,51.7,49.2,29.80,ESE,103,5.0,5.0,91,0.00,,,0.05,Wunderground v.1.15,2013-05-24 18:16:00,
2013-05-24 14:21:00,51.6,49.4,29.79,NE,48,0.0,1.0,92,0.00,,,0.05,Wunderground v.1.15,2013-05-24 18:21:00,
2013-05-24 14:26:00,51.6,49.6,29.79,NE,47,0.0,1.0,93,0.00,,,0.05,Wunderground v.1.15,2013-05-24 18:26:00,
2013-05-24 14:31:00,51.6,49.6,29.79,NE,35,0.0,0.0,93,0.00,,,0.05,Wunderground v.1.15,2013-05-24 18:31:00,
2013-05-24 14:36:00,51.4,49.4,29.80,North,0,0.0,1.0,93,0.00,,,0.05,Wunderground v.1.15,2013-05-24 18:36:00,
2013-05-24 14:41:00,51.1,49.1,29.80,NW,309,0.0,0.0,93,0.00,,,0.06,Wunderground v.1.15,2013-05-24 18:41:00,
2013-05-24 14:46:00,50.8,49.1,29.80,ESE,109,0.0,2.0,94,0.00,,,0.06,Wunderground v.1.15,2013-05-24 18:46:00,
2013-05-24 14:51:00,50.7,49.0,29.80,ESE,109,0.0,0.0,94,0.09,,,0.07,Wunderground v.1.15,2013-05-24 18:51:00,
2013-05-24 14:56:00,50.5,48.8,29.80,NE,45,3.0,3.0,94,0.11,,,0.08,Wunderground v.1.15,2013-05-24 18:56:00,
2013-05-24 15:01:00,50.4,49.0,29.80,North,3,0.0,1.0,95,0.10,,,0.09,Wunderground v.1.15,2013-05-24 19:01:00,
2013-05-24 15:06:00,50.4,49.0,29.80,ENE,69,0.0,7.0,95,0.08,,,0.10,Wunderground v.1.15,2013-05-24 19:06:00,
2013-05-24 15:11:00,50.2,48.8,29.80,NNW,337,0.0,1.0,95,0.08,,,0.10,Wunderground v.1.15,2013-05-24 19:11:00,
2013-05-24 15:17:00,50.2,49.1,29.80,North,352,0.0,1.0,96,0.05,,,0.10,Wunderground v.1.15,2013-05-24 19:17:00,
2013-05-24 15:22:00,50.4,49.3,29.80,North,0,0.0,0.0,96,0.04,,,0.10,Wunderground v.1.15,2013-05-24 19:22:00,
2013-05-24 15:27:00,50.4,49.3,29.80,North,0,0.0,0.0,96,0.00,,,0.11,Wunderground v.1.15,2013-05-24 19:27:00,
2013-05-24 15:32:00,50.5,49.4,29.80,ESE,104,0.0,0.0,96,0.00,,,0.11,Wunderground v.1.15,2013-05-24 19:32:00,
2013-05-24 15:37:00,50.5,49.4,29.80,North,357,0.0,3.0,96,0.00,,,0.11,Wunderground v.1.15,2013-05-24 19:37:00,
2013-05-24 15:42:00,50.4,49.3,29.80,South,181,0.0,0.0,96,0.00,,,0.11,Wunderground v.1.15,2013-05-24 19:42:00,
2013-05-24 15:47:00,50.5,49.7,29.80,NE,34,0.0,0.0,97,0.00,,,0.11,Wunderground v.1.15,2013-05-24 19:47:00,
2013-05-24 15:52:00,50.5,49.7,29.80,North,354,0.0,1.0,97,0.00,,,0.11,Wunderground v.1.15,2013-05-24 19:52:00,
2013-05-24 15:57:00,50.4,49.3,29.80,WNW,288,0.0,1.0,96,0.00,,,0.11,Wunderground v.1.15,2013-05-24 19:57:00,
2013-05-24 16:02:00,50.4,49.6,29.80,NE,51,0.0,0.0,97,0.00,,,0.11,Wunderground v.1.15,2013-05-24 20:02:00,
2013-05-24 16:07:00,50.4,49.3,29.81,NNW,333,0.0,0.0,96,0.00,,,0.11,Wunderground v.1.15,2013-05-24 20:07:00,
2013-05-24 16:12:00,50.4,49.6,29.81,NNW,333,0.0,0.0,97,0.00,,,0.11,Wunderground v.1.15,2013-05-24 20:12:00,
2013-05-24 16:17:00,50.2,49.1,29.81,ESE,102,0.0,0.0,96,0.00,,,0.11,Wunderground v.1.15,2013-05-24 20:17:00,
2013-05-24 16:22:00,50.2,49.4,29.81,North,353,0.0,0.0,97,0.00,,,0.11,Wunderground v.1.15,2013-05-24 20:22:00,
2013-05-24 16:27:00,50.4,49.6,29.81,NE,38,0.0,0.0,97,0.00,,,0.11,Wunderground v.1.15,2013-05-24 20:27:00,
2013-05-24 16:32:00,50.4,49.6,29.81,North,356,0.0,0.0,97,0.00,,,0.11,Wunderground v.1.15,2013-05-24 20:32:00,
2013-05-24 16:37:00,50.4,49.6,29.81,East,89,0.0,2.0,97,0.00,,,0.11,Wunderground v.1.15,2013-05-24 20:37:00,
2013-05-24 16:42:00,50.4,49.6,29.81,East,79,0.0,3.0,97,0.00,,,0.11,Wunderground v.1.15,2013-05-24 20:42:00,
2013-05-24 16:47:00,50.4,49.6,29.81,North,357,0.0,3.0,97,0.00,,,0.11,Wunderground v.1.15,2013-05-24 20:47:00,
2013-05-24 16:52:00,50.4,49.6,29.81,NE,54,0.0,0.0,97,0.00,,,0.11,Wunderground v.1.15,2013-05-24 20:52:00,
2013-05-24 16:57:00,50.4,49.3,29.81,East,97,0.0,0.0,96,0.00,,,0.12,Wunderground v.1.15,2013-05-24 20:57:00,
2013-05-24 17:02:00,50.2,49.1,29.81,NNW,339,0.0,0.0,96,0.00,,,0.12,Wunderground v.1.15,2013-05-24 21:02:00,
2013-05-24 17:07:00,50.2,49.1,29.83,NNE,24,0.0,0.0,96,0.00,,,0.12,Wunderground v.1.15,2013-05-24 21:07:00,
2013-05-24 17:12:00,50.1,49.0,29.83,ENE,59,0.0,3.0,96,0.00,,,0.12,Wunderground v.1.15,2013-05-24 21:12:00,
2013-05-24 17:17:00,49.9,48.8,29.83,North,0,0.0,3.0,96,0.00,,,0.12,Wunderground v.1.15,2013-05-24 21:17:00,
2013-05-24 17:23:00,49.8,48.7,29.82,NNE,20,0.0,2.0,96,0.00,,,0.12,Wunderground v.1.15,2013-05-24 21:23:00,
2013-05-24 17:28:00,49.8,48.7,29.82,NNW,336,7.0,7.0,96,0.00,,,0.12,Wunderground v.1.15,2013-05-24 21:28:00,
2013-05-24 17:33:00,49.5,48.4,29.82,NNE,17,2.0,5.0,96,0.00,,,0.12,Wunderground v.1.15,2013-05-24 21:33:00,
2013-05-24 17:38:00,49.2,48.1,29.80,West,264,0.0,6.0,96,0.00,,,0.12,Wunderground v.1.15,2013-05-24 21:38:00,
2013-05-24 17:43:00,48.9,47.8,29.80,North,354,0.0,2.0,96,0.00,,,0.13,Wunderground v.1.15,2013-05-24 21:43:00,
2013-05-24 17:48:00,48.8,47.7,29.80,NW,315,5.0,6.0,96,0.06,,,0.14,Wunderground v.1.15,2013-05-24 21:48:00,
2013-05-24 17:53:00,48.5,47.1,29.82,NNW,332,0.0,0.0,95,0.06,,,0.14,Wunderground v.1.15,2013-05-24 21:53:00,
2013-05-24 17:58:00,48.3,46.9,29.82,NW,325,0.0,0.0,95,0.05,,,0.14,Wunderground v.1.15,2013-05-24 21:58:00,
2013-05-24 18:03:00,48.3,47.2,29.82,NNW,339,3.0,3.0,96,0.04,,,0.14,Wunderground v.1.15,2013-05-24 22:03:00,
2013-05-24 18:08:00,48.0,46.6,29.83,North,0,5.0,6.0,95,0.00,,,0.14,Wunderground v.1.15,2013-05-24 22:08:00,
2013-05-24 18:13:00,47.9,46.5,29.83,ENE,76,0.0,1.0,95,0.00,,,0.14,Wunderground v.1.15,2013-05-24 22:13:00,
2013-05-24 18:18:00,47.7,46.6,29.83,ENE,72,0.0,6.0,96,0.00,,,0.15,Wunderground v.1.15,2013-05-24 22:18:00,
2013-05-24 18:23:00,47.7,46.6,29.83,North,349,0.0,3.0,96,0.00,,,0.15,Wunderground v.1.15,2013-05-24 22:23:00,
2013-05-24 18:28:00,47.6,46.5,29.83,East,92,0.0,3.0,96,0.09,,,0.16,Wunderground v.1.15,2013-05-24 22:28:00,
2013-05-24 18:33:00,47.6,46.5,29.83,East,92,0.0,0.0,96,0.09,,,0.17,Wunderground v.1.15,2013-05-24 22:33:00,
2013-05-24 18:38:00,47.6,46.5,29.84,NE,42,0.0,0.0,96,0.10,,,0.17,Wunderground v.1.15,2013-05-24 22:38:00,
2013-05-24 18:45:00,47.4,46.3,29.84,NNW,340,0.0,4.0,96,0.06,,,0.18,Wunderground v.1.15,2013-05-24 22:45:00,
2013-05-24 18:50:00,47.3,46.5,29.84,ENE,71,3.0,3.0,97,0.06,,,0.18,Wunderground v.1.15,2013-05-24 22:50:00,
2013-05-24 18:55:00,47.1,46.3,29.84,NE,48,0.0,8.0,97,0.06,,,0.18,Wunderground v.1.15,2013-05-24 22:55:00,
2013-05-24 19:00:00,47.0,46.2,29.84,East,83,0.0,0.0,97,0.04,,,0.18,Wunderground v.1.15,2013-05-24 23:00:00,
2013-05-24 19:05:00,46.8,46.0,29.85,East,83,0.0,0.0,97,0.00,,,0.19,Wunderground v.1.15,2013-05-24 23:05:00,
2013-05-24 19:10:00,46.7,45.9,29.85,NNW,343,0.0,1.0,97,0.00,,,0.19,Wunderground v.1.15,2013-05-24 23:10:00,
2013-05-24 19:15:00,46.5,45.7,29.85,ENE,69,0.0,5.0,97,0.08,,,0.20,Wunderground v.1.15,2013-05-24 23:15:00,
2013-05-24 19:20:00,46.4,45.6,29.85,NNW,339,2.0,2.0,97,0.09,,,0.21,Wunderground v.1.15,2013-05-24 23:20:00,
2013-05-24 19:25:00,46.2,45.4,29.85,NNW,344,0.0,3.0,97,0.07,,,0.21,Wunderground v.1.15,2013-05-24 23:25:00,
2013-05-24 19:30:00,46.2,45.4,29.85,NNW,346,0.0,1.0,97,0.07,,,0.22,Wunderground v.1.15,2013-05-24 23:30:00,
2013-05-24 19:36:00,46.1,45.3,29.87,NNW,346,0.0,6.0,97,0.06,,,0.22,Wunderground v.1.15,2013-05-24 23:36:00,
2013-05-24 19:41:00,46.0,45.2,29.87,NNW,346,0.0,4.0,97,0.04,,,0.22,Wunderground v.1.15,2013-05-24 23:41:00,
2013-05-24 19:46:00,45.8,44.7,29.87,NNW,343,3.0,8.0,96,0.00,,,0.22,Wunderground v.1.15,2013-05-24 23:46:00,
2013-05-24 19:51:00,45.7,44.6,29.88,North,7,5.0,9.0,96,0.00,,,0.22,Wunderground v.1.15,2013-05-24 23:51:00,
2013-05-24 19:56:00,45.5,44.4,29.88,East,93,0.0,9.0,96,0.00,,,0.22,Wunderground v.1.15,2013-05-24 23:56:00,
2013-05-24 20:01:00,45.4,44.3,29.88,ENE,64,0.0,2.0,96,0.00,,,0.22,Wunderground v.1.15,2013-05-25 00:01:00,
2013-05-24 20:06:00,45.2,44.1,29.88,North,0,0.0,6.0,96,0.00,,,0.22,Wunderground v.1.15,2013-05-25 00:06:00,
2013-05-24 20:11:00,45.2,44.4,29.88,NE,45,1.0,3.0,97,0.00,,,0.23,Wunderground v.1.15,2013-05-25 00:11:00,
2013-05-24 20:16:00,45.1,44.3,29.88,NNW,347,0.0,5.0,97,0.00,,,0.23,Wunderground v.1.15,2013-05-25 00:16:00,
2013-05-24 20:21:00,45.1,44.3,29.87,NNE,27,0.0,2.0,97,0.00,,,0.23,Wunderground v.1.15,2013-05-25 00:21:00,
2013-05-24 20:27:00,44.9,44.1,29.87,SE,138,0.0,4.0,97,0.00,,,0.24,Wunderground v.1.15,2013-05-25 00:27:00,
2013-05-24 20:32:00,44.8,44.0,29.87,East,82,0.0,3.0,97,0.00,,,0.24,Wunderground v.1.15,2013-05-25 00:32:00,
2013-05-24 20:37:00,44.8,44.0,29.86,ENE,61,1.0,3.0,97,0.00,,,0.24,Wunderground v.1.15,2013-05-25 00:37:00,
2013-05-24 20:42:00,44.6,43.8,29.86,NNE,21,0.0,3.0,97,0.00,,,0.24,Wunderground v.1.15,2013-05-25 00:42:00,
2013-05-24 20:47:00,44.5,43.7,29.86,ENE,72,3.0,5.0,97,0.00,,,0.24,Wunderground v.1.15,2013-05-25 00:47:00,
2013-05-24 20:52:00,44.5,43.7,29.87,North,356,0.0,1.0,97,0.00,,,0.24,Wunderground v.1.15,2013-05-25 00:52:00,
2013-05-24 20:57:00,44.3,43.5,29.87,SSW,195,0.0,8.0,97,0.00,,,0.24,Wunderground v.1.15,2013-05-25 00:57:00,
2013-05-24 21:02:00,44.2,43.1,29.87,ENE,65,1.0,3.0,96,0.00,,,0.24,Wunderground v.1.15,2013-05-25 01:02:00,
2013-05-24 21:07:00,44.2,43.1,29.88,NE,45,2.0,6.0,96,0.00,,,0.24,Wunderground v.1.15,2013-05-25 01:07:00,
2013-05-24 21:12:00,44.1,43.0,29.88,North,0,0.0,3.0,96,0.00,,,0.24,Wunderground v.1.15,2013-05-25 01:12:00,
2013-05-24 21:17:00,44.1,43.0,29.88,NW,304,4.0,7.0,96,0.00,,,0.24,Wunderground v.1.15,2013-05-25 01:17:00,
2013-05-24 21:22:00,44.1,43.0,29.88,East,95,0.0,2.0,96,0.00,,,0.24,Wunderground v.1.15,2013-05-25 01:22:00,
2013-05-24 21:27:00,44.1,43.0,29.88,NE,37,2.0,2.0,96,0.00,,,0.24,Wunderground v.1.15,2013-05-25 01:27:00,
2013-05-24 21:32:00,43.8,42.7,29.88,East,92,0.0,10.0,96,0.00,,,0.24,Wunderground v.1.15,2013-05-25 01:32:00,
2013-05-24 21:37:00,43.8,42.7,29.86,NE,35,2.0,10.0,96,0.00,,,0.24,Wunderground v.1.15,2013-05-25 01:37:00,
2013-05-24 21:42:00,43.6,42.5,29.86,ENE,71,3.0,9.0,96,0.00,,,0.24,Wunderground v.1.15,2013-05-25 01:42:00,
2013-05-24 21:47:00,43.6,42.5,29.86,North,359,0.0,9.0,96,0.00,,,0.24,Wunderground v.1.15,2013-05-25 01:47:00,
2013-05-24 21:52:00,43.5,42.4,29.87,North,349,1.0,8.0,96,0.00,,,0.24,Wunderground v.1.15,2013-05-25 01:52:00,
2013-05-24 21:57:00,43.5,42.2,29.87,NE,37,1.0,8.0,95,0.00,,,0.25,Wunderground v.1.15,2013-05-25 01:57:00,
2013-05-24 22:02:00,43.5,42.2,29.87,ENE,62,3.0,3.0,95,0.00,,,0.25,Wunderground v.1.15,2013-05-25 02:02:00,
2013-05-24 22:07:00,43.5,42.4,29.86,ENE,72,0.0,6.0,96,0.00,,,0.25,Wunderground v.1.15,2013-05-25 02:07:00,
2013-05-24 22:12:00,43.3,42.2,29.86,SE,140,2.0,10.0,96,0.00,,,0.25,Wunderground v.1.15,2013-05-25 02:12:00,
2013-05-24 22:17:00,43.2,41.9,29.86,NNE,16,2.0,10.0,95,0.00,,,0.25,Wunderground v.1.15,2013-05-25 02:17:00,
2013-05-24 22:22:00,43.1,41.8,29.86,SW,224,0.0,20.0,95,0.00,,,0.25,Wunderground v.1.15,2013-05-25 02:22:00,
2013-05-24 22:27:00,43.1,41.8,29.86,NW,312,0.0,20.0,95,0.00,,,0.25,Wunderground v.1.15,2013-05-25 02:27:00,
2013-05-24 22:32:00,42.9,41.3,29.86,NW,320,0.0,10.0,94,0.00,,,0.25,Wunderground v.1.15,2013-05-25 02:32:00,
2013-05-24 22:37:00,42.9,41.3,29.89,NW,312,2.0,10.0,94,0.00,,,0.25,Wunderground v.1.15,2013-05-25 02:37:00,
2013-05-24 22:42:00,43.1,41.2,29.89,NW,318,0.0,3.0,93,0.00,,,0.25,Wunderground v.1.15,2013-05-25 02:42:00,
2013-05-24 22:47:00,43.1,41.5,29.89,North,354,0.0,3.0,94,0.00,,,0.25,Wunderground v.1.15,2013-05-25 02:47:00,
2013-05-24 22:52:00,43.2,41.6,29.91,NNW,329,0.0,1.0,94,0.00,,,0.25,Wunderground v.1.15,2013-05-25 02:52:00,
2013-05-24 22:57:00,43.2,41.6,29.91,SSE,160,0.0,2.0,94,0.00,,,0.25,Wunderground v.1.15,2013-05-25 02:57:00,
2013-05-24 23:02:00,43.2,41.6,29.91,NNW,330,0.0,1.0,94,0.00,,,0.25,Wunderground v.1.15,2013-05-25 03:02:00,
2013-05-24 23:08:00,43.3,41.7,29.91,ENE,62,0.0,8.0,94,0.00,,,0.25,Wunderground v.1.15,2013-05-25 03:08:00,
2013-05-24 23:15:00,43.3,41.7,29.91,North,4,0.0,1.0,94,0.00,,,0.25,Wunderground v.1.15,2013-05-25 03:15:00,
2013-05-24 23:20:00,43.3,41.7,29.89,North,7,1.0,1.0,94,0.00,,,0.25,Wunderground v.1.15,2013-05-25 03:20:00,
2013-05-24 23:25:00,43.3,41.7,29.89,NE,35,1.0,3.0,94,0.00,,,0.25,Wunderground v.1.15,2013-05-25 03:25:00,
2013-05-24 23:30:00,43.3,42.0,29.89,North,0,0.0,1.0,95,0.00,,,0.25,Wunderground v.1.15,2013-05-25 03:30:00,
2013-05-24 23:35:00,43.2,41.6,29.87,North,350,0.0,2.0,94,0.00,,,0.25,Wunderground v.1.15,2013-05-25 03:35:00,
2013-05-24 23:41:00,43.2,41.6,29.87,East,79,0.0,3.0,94,0.00,,,0.25,Wunderground v.1.15,2013-05-25 03:41:00,
2013-05-24 23:46:00,43.2,41.6,29.87,NW,323,1.0,3.0,94,0.00,,,0.25,Wunderground v.1.15,2013-05-25 03:46:00,
2013-05-24 23:51:00,43.2,41.6,29.87,North,354,0.0,5.0,94,0.00,,,0.25,Wunderground v.1.15,2013-05-25 03:51:00,
2013-05-24 23:56:00,43.2,41.6,29.87,SE,131,0.0,5.0,94,0.00,,,0.25,Wunderground v.1.15,2013-05-25 03:56:00,